sensor_id;sensor_type;location;lat;lon;timestamp;pressure;altitude;pressure_sealevel;temperature;humidity
65614;BME280;52283;49.292;10.572;2022-07-22T00:00:45;96894.69;;;17.61;81.08
65614;BME280;52283;49.292;10.572;2022-07-22T00:03:12;96897.84;;;17.58;81.70
65614;BME280;52283;49.292;10.572;2022-07-22T00:05:40;96897.63;;;17.56;81.93
65614;BME280;52283;49.292;10.572;2022-07-22T00:08:07;96892.09;;;17.63;81.20
65614;BME280;52283;49.292;10.572;2022-07-22T00:10:33;96898.72;;;17.66;81.29
65614;BME280;52283;49.292;10.572;2022-07-22T00:13:00;96896.75;;;17.61;81.44
65614;BME280;52283;49.292;10.572;2022-07-22T00:15:27;96899.16;;;17.57;81.99
65614;BME280;52283;49.292;10.572;2022-07-22T00:17:53;96890.34;;;17.60;81.49
65614;BME280;52283;49.292;10.572;2022-07-22T00:20:20;96899.31;;;17.78;80.79
65614;BME280;52283;49.292;10.572;2022-07-22T00:22:48;96894.44;;;17.78;80.69
65614;BME280;52283;49.292;10.572;2022-07-22T00:25:14;96891.66;;;17.59;82.18
65614;BME280;52283;49.292;10.572;2022-07-22T00:27:41;96898.72;;;17.53;82.46
65614;BME280;52283;49.292;10.572;2022-07-22T00:30:08;96891.00;;;17.53;82.52
65614;BME280;52283;49.292;10.572;2022-07-22T00:32:35;96886.19;;;17.48;83.15
65614;BME280;52283;49.292;10.572;2022-07-22T00:35:03;96881.81;;;17.34;83.82
65614;BME280;52283;49.292;10.572;2022-07-22T00:37:29;96889.84;;;17.30;84.17
65614;BME280;52283;49.292;10.572;2022-07-22T00:39:57;96888.44;;;17.36;83.84
65614;BME280;52283;49.292;10.572;2022-07-22T00:42:24;96894.50;;;17.27;84.50
65614;BME280;52283;49.292;10.572;2022-07-22T00:44:51;96901.59;;;16.83;87.25
65614;BME280;52283;49.292;10.572;2022-07-22T00:47:17;96909.66;;;16.55;89.56
65614;BME280;52283;49.292;10.572;2022-07-22T00:49:44;96898.50;;;16.62;89.14
65614;BME280;52283;49.292;10.572;2022-07-22T00:52:11;96898.72;;;16.89;87.57
65614;BME280;52283;49.292;10.572;2022-07-22T00:54:38;96903.94;;;16.98;86.97
65614;BME280;52283;49.292;10.572;2022-07-22T00:57:06;96905.03;;;16.95;86.69
65614;BME280;52283;49.292;10.572;2022-07-22T00:59:33;96901.81;;;16.85;87.21
65614;BME280;52283;49.292;10.572;2022-07-22T01:01:59;96906.47;;;16.83;87.10
65614;BME280;52283;49.292;10.572;2022-07-22T01:04:26;96894.81;;;16.73;87.67
65614;BME280;52283;49.292;10.572;2022-07-22T01:06:53;96900.97;;;16.53;89.60
65614;BME280;52283;49.292;10.572;2022-07-22T01:09:19;96890.03;;;16.43;90.57
65614;BME280;52283;49.292;10.572;2022-07-22T01:11:46;96889.66;;;16.34;91.52
65614;BME280;52283;49.292;10.572;2022-07-22T01:14:14;96893.78;;;16.33;91.67
65614;BME280;52283;49.292;10.572;2022-07-22T01:16:41;96892.25;;;16.32;92.30
65614;BME280;52283;49.292;10.572;2022-07-22T01:19:07;96881.59;;;16.25;92.62
65614;BME280;52283;49.292;10.572;2022-07-22T01:21:35;96888.69;;;16.31;92.52
65614;BME280;52283;49.292;10.572;2022-07-22T01:24:02;96890.03;;;16.43;91.73
65614;BME280;52283;49.292;10.572;2022-07-22T01:26:29;96892.28;;;16.51;90.86
65614;BME280;52283;49.292;10.572;2022-07-22T01:28:56;96889.53;;;16.45;91.08
65614;BME280;52283;49.292;10.572;2022-07-22T01:31:22;96896.22;;;16.42;91.11
65614;BME280;52283;49.292;10.572;2022-07-22T01:33:49;96898.88;;;16.34;91.43
65614;BME280;52283;49.292;10.572;2022-07-22T01:36:15;96897.22;;;16.26;92.05
65614;BME280;52283;49.292;10.572;2022-07-22T01:38:43;96897.03;;;16.18;93.20
65614;BME280;52283;49.292;10.572;2022-07-22T01:41:10;96893.59;;;16.06;93.84
65614;BME280;52283;49.292;10.572;2022-07-22T01:43:37;96894.94;;;16.00;94.63
65614;BME280;52283;49.292;10.572;2022-07-22T01:46:05;96890.34;;;15.97;94.91
65614;BME280;52283;49.292;10.572;2022-07-22T01:48:31;96894.00;;;15.92;95.38
65614;BME280;52283;49.292;10.572;2022-07-22T01:50:58;96895.06;;;15.89;95.80
65614;BME280;52283;49.292;10.572;2022-07-22T01:53:25;96900.81;;;15.77;97.15
65614;BME280;52283;49.292;10.572;2022-07-22T01:55:53;96890.25;;;15.83;96.75
65614;BME280;52283;49.292;10.572;2022-07-22T01:58:20;96893.31;;;15.85;96.47
65614;BME280;52283;49.292;10.572;2022-07-22T02:00:47;96893.88;;;15.78;96.98
65614;BME280;52283;49.292;10.572;2022-07-22T02:03:13;96891.72;;;15.90;96.39
65614;BME280;52283;49.292;10.572;2022-07-22T02:05:40;96891.78;;;16.09;94.71
65614;BME280;52283;49.292;10.572;2022-07-22T02:08:09;96897.09;;;16.12;93.74
65614;BME280;52283;49.292;10.572;2022-07-22T02:10:36;96895.81;;;16.13;93.49
65614;BME280;52283;49.292;10.572;2022-07-22T02:13:04;96893.53;;;16.12;93.37
65614;BME280;52283;49.292;10.572;2022-07-22T02:15:31;96891.38;;;16.18;92.77
65614;BME280;52283;49.292;10.572;2022-07-22T02:17:58;96893.16;;;16.21;92.69
65614;BME280;52283;49.292;10.572;2022-07-22T02:20:24;96884.16;;;16.23;92.45
65614;BME280;52283;49.292;10.572;2022-07-22T02:22:51;96878.81;;;16.19;92.73
65614;BME280;52283;49.292;10.572;2022-07-22T02:25:18;96884.47;;;16.19;92.82
65614;BME280;52283;49.292;10.572;2022-07-22T02:27:44;96882.69;;;16.16;92.93
65614;BME280;52283;49.292;10.572;2022-07-22T02:30:12;96875.31;;;16.13;93.05
65614;BME280;52283;49.292;10.572;2022-07-22T02:32:39;96879.88;;;16.16;92.78
65614;BME280;52283;49.292;10.572;2022-07-22T02:35:06;96881.41;;;16.17;92.47
65614;BME280;52283;49.292;10.572;2022-07-22T02:37:33;96880.13;;;16.18;92.45
65614;BME280;52283;49.292;10.572;2022-07-22T02:40:00;96890.63;;;16.17;92.55
65614;BME280;52283;49.292;10.572;2022-07-22T02:42:27;96885.00;;;16.17;92.70
65614;BME280;52283;49.292;10.572;2022-07-22T02:44:53;96880.28;;;16.26;92.06
65614;BME280;52283;49.292;10.572;2022-07-22T02:47:21;96881.38;;;15.98;93.75
65614;BME280;52283;49.292;10.572;2022-07-22T02:49:48;96876.19;;;15.83;95.20
65614;BME280;52283;49.292;10.572;2022-07-22T02:52:14;96879.41;;;15.69;97.26
65614;BME280;52283;49.292;10.572;2022-07-22T02:54:41;96882.69;;;15.43;100.00
65614;BME280;52283;49.292;10.572;2022-07-22T02:57:08;96888.31;;;15.43;100.00
65614;BME280;52283;49.292;10.572;2022-07-22T02:59:35;96877.31;;;15.39;100.00
65614;BME280;52283;49.292;10.572;2022-07-22T03:02:02;96883.22;;;15.41;100.00
65614;BME280;52283;49.292;10.572;2022-07-22T03:04:30;96882.38;;;15.76;98.45
65614;BME280;52283;49.292;10.572;2022-07-22T03:06:56;96882.50;;;15.90;96.68
65614;BME280;52283;49.292;10.572;2022-07-22T03:09:23;96889.19;;;15.87;96.45
65614;BME280;52283;49.292;10.572;2022-07-22T03:11:49;96896.41;;;15.82;96.65
65614;BME280;52283;49.292;10.572;2022-07-22T03:14:16;96881.75;;;15.65;98.45
65614;BME280;52283;49.292;10.572;2022-07-22T03:16:43;96888.38;;;15.67;99.22
65614;BME280;52283;49.292;10.572;2022-07-22T03:19:10;96885.31;;;15.65;98.04
65614;BME280;52283;49.292;10.572;2022-07-22T03:21:38;96880.50;;;15.60;98.88
65614;BME280;52283;49.292;10.572;2022-07-22T03:24:05;96878.16;;;15.64;98.22
65614;BME280;52283;49.292;10.572;2022-07-22T03:26:31;96882.69;;;15.73;97.91
65614;BME280;52283;49.292;10.572;2022-07-22T03:28:58;96875.88;;;15.63;97.89
65614;BME280;52283;49.292;10.572;2022-07-22T03:31:24;96881.78;;;15.59;97.95
65614;BME280;52283;49.292;10.572;2022-07-22T03:33:52;96895.25;;;15.42;98.55
65614;BME280;52283;49.292;10.572;2022-07-22T03:36:18;96885.94;;;15.22;99.82
65614;BME280;52283;49.292;10.572;2022-07-22T03:38:46;96890.06;;;15.16;100.00
65614;BME280;52283;49.292;10.572;2022-07-22T03:41:13;96885.84;;;15.04;100.00
65614;BME280;52283;49.292;10.572;2022-07-22T03:43:39;96884.38;;;14.91;100.00
65614;BME280;52283;49.292;10.572;2022-07-22T03:46:06;96889.00;;;14.89;100.00
65614;BME280;52283;49.292;10.572;2022-07-22T03:48:32;96889.19;;;14.97;100.00
65614;BME280;52283;49.292;10.572;2022-07-22T03:50:59;96887.38;;;14.99;100.00
65614;BME280;52283;49.292;10.572;2022-07-22T03:53:26;96889.69;;;15.01;100.00
65614;BME280;52283;49.292;10.572;2022-07-22T03:55:53;96894.22;;;15.09;100.00
65614;BME280;52283;49.292;10.572;2022-07-22T03:58:20;96892.66;;;15.14;100.00
65614;BME280;52283;49.292;10.572;2022-07-22T04:00:47;96890.84;;;15.16;100.00
65614;BME280;52283;49.292;10.572;2022-07-22T04:03:13;96892.13;;;15.15;100.00
65614;BME280;52283;49.292;10.572;2022-07-22T04:05:40;96892.59;;;15.19;100.00
65614;BME280;52283;49.292;10.572;2022-07-22T04:08:06;96895.81;;;15.05;100.00
65614;BME280;52283;49.292;10.572;2022-07-22T04:10:33;96898.22;;;14.89;100.00
65614;BME280;52283;49.292;10.572;2022-07-22T04:13:00;96901.34;;;14.80;100.00
65614;BME280;52283;49.292;10.572;2022-07-22T04:15:27;96896.50;;;14.75;100.00
65614;BME280;52283;49.292;10.572;2022-07-22T04:17:54;96894.72;;;14.72;100.00
65614;BME280;52283;49.292;10.572;2022-07-22T04:20:20;96896.75;;;14.77;100.00
65614;BME280;52283;49.292;10.572;2022-07-22T04:22:47;96888.06;;;14.75;100.00
65614;BME280;52283;49.292;10.572;2022-07-22T04:25:13;96890.63;;;14.79;100.00
65614;BME280;52283;49.292;10.572;2022-07-22T04:27:40;96897.50;;;14.83;100.00
65614;BME280;52283;49.292;10.572;2022-07-22T04:30:09;96888.53;;;14.85;100.00
65614;BME280;52283;49.292;10.572;2022-07-22T04:32:36;96890.56;;;14.84;100.00
65614;BME280;52283;49.292;10.572;2022-07-22T04:35:03;96890.09;;;14.80;100.00
65614;BME280;52283;49.292;10.572;2022-07-22T04:37:30;96883.41;;;14.83;100.00
65614;BME280;52283;49.292;10.572;2022-07-22T04:39:57;96881.84;;;14.88;100.00
65614;BME280;52283;49.292;10.572;2022-07-22T04:42:24;96887.44;;;14.93;100.00
65614;BME280;52283;49.292;10.572;2022-07-22T04:44:50;96888.72;;;14.92;100.00
65614;BME280;52283;49.292;10.572;2022-07-22T04:47:18;96883.03;;;15.04;100.00
65614;BME280;52283;49.292;10.572;2022-07-22T04:49:45;96886.78;;;15.12;100.00
65614;BME280;52283;49.292;10.572;2022-07-22T04:52:11;96882.41;;;15.16;100.00
65614;BME280;52283;49.292;10.572;2022-07-22T04:54:38;96881.34;;;15.19;100.00
65614;BME280;52283;49.292;10.572;2022-07-22T04:57:04;96883.06;;;15.28;100.00
65614;BME280;52283;49.292;10.572;2022-07-22T04:59:31;96883.03;;;15.34;100.00
65614;BME280;52283;49.292;10.572;2022-07-22T05:01:57;96885.53;;;15.37;100.00
65614;BME280;52283;49.292;10.572;2022-07-22T05:04:25;96882.72;;;15.37;100.00
65614;BME280;52283;49.292;10.572;2022-07-22T05:06:52;96884.75;;;15.42;100.00
65614;BME280;52283;49.292;10.572;2022-07-22T05:09:18;96885.44;;;15.48;100.00
65614;BME280;52283;49.292;10.572;2022-07-22T05:11:45;96889.25;;;15.51;100.00
65614;BME280;52283;49.292;10.572;2022-07-22T05:14:11;96891.50;;;15.58;100.00
65614;BME280;52283;49.292;10.572;2022-07-22T05:16:38;96891.44;;;15.69;100.00
65614;BME280;52283;49.292;10.572;2022-07-22T05:19:05;96884.66;;;15.78;100.00
65614;BME280;52283;49.292;10.572;2022-07-22T05:21:33;96887.91;;;15.88;100.00
65614;BME280;52283;49.292;10.572;2022-07-22T05:23:59;96887.38;;;15.89;100.00
65614;BME280;52283;49.292;10.572;2022-07-22T05:26:26;96888.31;;;15.97;100.00
65614;BME280;52283;49.292;10.572;2022-07-22T05:28:55;96888.19;;;16.08;100.00
65614;BME280;52283;49.292;10.572;2022-07-22T05:31:21;96894.06;;;16.10;99.99
65614;BME280;52283;49.292;10.572;2022-07-22T05:33:48;96891.94;;;16.16;99.21
65614;BME280;52283;49.292;10.572;2022-07-22T05:36:15;96892.88;;;16.25;100.00
65614;BME280;52283;49.292;10.572;2022-07-22T05:38:43;96890.72;;;16.31;100.00
65614;BME280;52283;49.292;10.572;2022-07-22T05:41:09;96883.59;;;16.49;98.82
65614;BME280;52283;49.292;10.572;2022-07-22T05:43:36;96889.06;;;16.60;97.58
65614;BME280;52283;49.292;10.572;2022-07-22T05:46:03;96885.72;;;16.61;97.34
65614;BME280;52283;49.292;10.572;2022-07-22T05:48:30;96886.13;;;16.71;97.10
65614;BME280;52283;49.292;10.572;2022-07-22T05:50:57;96883.13;;;16.82;96.73
65614;BME280;52283;49.292;10.572;2022-07-22T05:53:23;96892.44;;;16.96;95.64
65614;BME280;52283;49.292;10.572;2022-07-22T05:55:51;96878.66;;;17.05;94.98
65614;BME280;52283;49.292;10.572;2022-07-22T05:58:18;96887.06;;;17.11;94.91
65614;BME280;52283;49.292;10.572;2022-07-22T06:00:44;96879.59;;;17.27;93.26
65614;BME280;52283;49.292;10.572;2022-07-22T06:03:11;96883.50;;;17.24;92.04
65614;BME280;52283;49.292;10.572;2022-07-22T06:05:37;96885.78;;;17.25;92.26
65614;BME280;52283;49.292;10.572;2022-07-22T06:08:04;96883.34;;;17.35;91.50
65614;BME280;52283;49.292;10.572;2022-07-22T06:10:31;96882.69;;;17.42;90.68
65614;BME280;52283;49.292;10.572;2022-07-22T06:12:59;96882.53;;;17.53;89.76
65614;BME280;52283;49.292;10.572;2022-07-22T06:15:26;96890.03;;;17.64;87.86
65614;BME280;52283;49.292;10.572;2022-07-22T06:17:52;96885.31;;;17.72;87.66
65614;BME280;52283;49.292;10.572;2022-07-22T06:20:19;96883.78;;;17.84;86.71
65614;BME280;52283;49.292;10.572;2022-07-22T06:22:46;96887.78;;;17.89;86.18
65614;BME280;52283;49.292;10.572;2022-07-22T06:25:12;96886.38;;;18.09;84.75
65614;BME280;52283;49.292;10.572;2022-07-22T06:27:39;96887.69;;;18.34;83.52
65614;BME280;52283;49.292;10.572;2022-07-22T06:30:08;96885.28;;;18.38;83.16
65614;BME280;52283;49.292;10.572;2022-07-22T06:32:35;96896.59;;;18.38;82.33
65614;BME280;52283;49.292;10.572;2022-07-22T06:35:02;96889.59;;;18.52;82.24
65614;BME280;52283;49.292;10.572;2022-07-22T06:37:29;96893.31;;;18.61;81.44
65614;BME280;52283;49.292;10.572;2022-07-22T06:39:56;96898.28;;;18.81;81.08
65614;BME280;52283;49.292;10.572;2022-07-22T06:42:22;96908.31;;;18.82;80.12
65614;BME280;52283;49.292;10.572;2022-07-22T06:44:49;96903.19;;;18.80;79.72
65614;BME280;52283;49.292;10.572;2022-07-22T06:47:18;96898.25;;;18.94;78.55
65614;BME280;52283;49.292;10.572;2022-07-22T06:49:44;96899.84;;;19.03;78.68
65614;BME280;52283;49.292;10.572;2022-07-22T06:52:11;96896.34;;;19.10;77.87
65614;BME280;52283;49.292;10.572;2022-07-22T06:54:37;96893.09;;;19.27;77.48
65614;BME280;52283;49.292;10.572;2022-07-22T06:57:04;96899.88;;;19.44;76.91
65614;BME280;52283;49.292;10.572;2022-07-22T06:59:30;96887.72;;;19.57;75.84
65614;BME280;52283;49.292;10.572;2022-07-22T07:01:57;96894.78;;;19.43;75.86
65614;BME280;52283;49.292;10.572;2022-07-22T07:04:25;96891.94;;;19.43;75.82
65614;BME280;52283;49.292;10.572;2022-07-22T07:06:52;96885.94;;;19.67;75.24
65614;BME280;52283;49.292;10.572;2022-07-22T07:09:18;96885.44;;;20.05;74.12
65614;BME280;52283;49.292;10.572;2022-07-22T07:11:45;96870.88;;;20.73;70.21
65614;BME280;52283;49.292;10.572;2022-07-22T07:14:11;96874.47;;;20.81;69.04
65614;BME280;52283;49.292;10.572;2022-07-22T07:16:38;96870.56;;;20.99;67.87
65614;BME280;52283;49.292;10.572;2022-07-22T07:19:04;96865.19;;;20.81;68.16
65614;BME280;52283;49.292;10.572;2022-07-22T07:21:32;96866.28;;;21.44;66.72
65614;BME280;52283;49.292;10.572;2022-07-22T07:23:59;96865.75;;;21.69;65.17
65614;BME280;52283;49.292;10.572;2022-07-22T07:26:26;96853.75;;;22.01;63.75
65614;BME280;52283;49.292;10.572;2022-07-22T07:28:53;96858.16;;;21.79;63.21
65614;BME280;52283;49.292;10.572;2022-07-22T07:31:20;96857.19;;;21.76;63.75
65614;BME280;52283;49.292;10.572;2022-07-22T07:33:47;96853.81;;;21.70;64.49
65614;BME280;52283;49.292;10.572;2022-07-22T07:36:13;96852.84;;;21.90;63.57
65614;BME280;52283;49.292;10.572;2022-07-22T07:38:41;96848.44;;;21.97;63.13
65614;BME280;52283;49.292;10.572;2022-07-22T07:41:08;96845.22;;;21.85;63.37
65614;BME280;52283;49.292;10.572;2022-07-22T07:43:35;96851.78;;;22.41;60.86
65614;BME280;52283;49.292;10.572;2022-07-22T07:46:01;96840.75;;;22.93;58.76
65614;BME280;52283;49.292;10.572;2022-07-22T07:48:28;96844.72;;;22.98;59.34
65614;BME280;52283;49.292;10.572;2022-07-22T07:50:55;96847.91;;;22.62;61.14
65614;BME280;52283;49.292;10.572;2022-07-22T07:53:21;96829.44;;;23.35;58.01
65614;BME280;52283;49.292;10.572;2022-07-22T07:55:49;96839.34;;;23.34;58.23
65614;BME280;52283;49.292;10.572;2022-07-22T07:58:16;96836.56;;;23.94;56.09
65614;BME280;52283;49.292;10.572;2022-07-22T08:00:43;96831.03;;;23.96;56.40
65614;BME280;52283;49.292;10.572;2022-07-22T08:03:10;96828.03;;;24.46;53.45
65614;BME280;52283;49.292;10.572;2022-07-22T08:05:37;96832.56;;;23.97;54.56
65614;BME280;52283;49.292;10.572;2022-07-22T08:08:05;96834.00;;;23.63;55.92
65614;BME280;52283;49.292;10.572;2022-07-22T08:10:31;96839.13;;;23.65;56.35
65614;BME280;52283;49.292;10.572;2022-07-22T08:13:00;96833.63;;;24.71;52.95
65614;BME280;52283;49.292;10.572;2022-07-22T08:15:28;96840.84;;;23.35;55.99
65614;BME280;52283;49.292;10.572;2022-07-22T08:17:55;96836.16;;;23.97;55.32
65614;BME280;52283;49.292;10.572;2022-07-22T08:20:22;96832.41;;;23.70;54.56
65614;BME280;52283;49.292;10.572;2022-07-22T08:22:50;96833.16;;;23.70;54.67
65614;BME280;52283;49.292;10.572;2022-07-22T08:25:17;96828.31;;;24.40;52.77
65614;BME280;52283;49.292;10.572;2022-07-22T08:27:44;96818.44;;;24.51;51.85
65614;BME280;52283;49.292;10.572;2022-07-22T08:30:13;96817.97;;;25.16;49.97
65614;BME280;52283;49.292;10.572;2022-07-22T08:32:40;96813.66;;;25.25;49.76
65614;BME280;52283;49.292;10.572;2022-07-22T08:35:07;96810.75;;;25.61;48.43
65614;BME280;52283;49.292;10.572;2022-07-22T08:37:34;96812.06;;;25.41;48.52
65614;BME280;52283;49.292;10.572;2022-07-22T08:40:02;96815.63;;;25.32;48.96
65614;BME280;52283;49.292;10.572;2022-07-22T08:42:29;96809.00;;;25.66;48.35
65614;BME280;52283;49.292;10.572;2022-07-22T08:44:56;96807.84;;;25.98;47.64
65614;BME280;52283;49.292;10.572;2022-07-22T08:47:24;96809.38;;;25.43;48.48
65614;BME280;52283;49.292;10.572;2022-07-22T08:49:51;96804.13;;;26.24;47.45
65614;BME280;52283;49.292;10.572;2022-07-22T08:52:17;96797.03;;;26.16;46.86
65614;BME280;52283;49.292;10.572;2022-07-22T08:54:44;96792.06;;;26.16;46.19
65614;BME280;52283;49.292;10.572;2022-07-22T08:57:10;96795.94;;;25.92;47.81
65614;BME280;52283;49.292;10.572;2022-07-22T08:59:48;96798.09;;;25.45;47.75
65614;BME280;52283;49.292;10.572;2022-07-22T09:02:15;96780.84;;;25.81;46.15
65614;BME280;52283;49.292;10.572;2022-07-22T09:04:54;96797.28;;;25.35;47.60
65614;BME280;52283;49.292;10.572;2022-07-22T09:07:29;96778.78;;;26.30;45.08
65614;BME280;52283;49.292;10.572;2022-07-22T09:09:56;96784.47;;;26.88;44.79
65614;BME280;52283;49.292;10.572;2022-07-22T09:12:23;96779.13;;;27.14;43.78
65614;BME280;52283;49.292;10.572;2022-07-22T09:14:51;96781.94;;;26.73;43.82
65614;BME280;52283;49.292;10.572;2022-07-22T09:17:26;96799.13;;;25.86;45.88
65614;BME280;52283;49.292;10.572;2022-07-22T09:19:55;96787.06;;;26.74;44.47
65614;BME280;52283;49.292;10.572;2022-07-22T09:22:36;96775.13;;;26.78;44.36
65614;BME280;52283;49.292;10.572;2022-07-22T09:25:21;96796.28;;;26.25;46.06
65614;BME280;52283;49.292;10.572;2022-07-22T09:27:50;96776.22;;;27.54;42.62
65614;BME280;52283;49.292;10.572;2022-07-22T09:30:20;96773.47;;;28.30;41.23
65614;BME280;52283;49.292;10.572;2022-07-22T09:32:47;96780.84;;;27.38;42.36
65614;BME280;52283;49.292;10.572;2022-07-22T09:35:16;96767.53;;;27.02;42.68
65614;BME280;52283;49.292;10.572;2022-07-22T09:37:51;96770.94;;;27.82;42.65
65614;BME280;52283;49.292;10.572;2022-07-22T09:40:21;96765.91;;;27.71;41.46
65614;BME280;52283;49.292;10.572;2022-07-22T09:42:50;96767.84;;;26.96;43.71
65614;BME280;52283;49.292;10.572;2022-07-22T09:45:18;96763.13;;;27.51;42.97
65614;BME280;52283;49.292;10.572;2022-07-22T09:47:45;96761.03;;;28.16;41.41
65614;BME280;52283;49.292;10.572;2022-07-22T09:50:22;96762.91;;;28.33;40.48
65614;BME280;52283;49.292;10.572;2022-07-22T09:52:50;96765.19;;;28.24;41.46
65614;BME280;52283;49.292;10.572;2022-07-22T09:55:18;96770.41;;;27.74;41.80
65614;BME280;52283;49.292;10.572;2022-07-22T09:57:46;96767.53;;;27.43;42.96
65614;BME280;52283;49.292;10.572;2022-07-22T10:00:14;96758.56;;;27.48;42.80
65614;BME280;52283;49.292;10.572;2022-07-22T10:02:45;96763.94;;;26.92;43.44
65614;BME280;52283;49.292;10.572;2022-07-22T10:05:13;96760.66;;;26.76;43.42
65614;BME280;52283;49.292;10.572;2022-07-22T10:07:43;96764.09;;;26.84;43.93
65614;BME280;52283;49.292;10.572;2022-07-22T10:10:11;96757.97;;;27.19;43.45
65614;BME280;52283;49.292;10.572;2022-07-22T10:12:39;96748.72;;;28.04;41.49
65614;BME280;52283;49.292;10.572;2022-07-22T10:15:07;96747.31;;;27.62;41.62
65614;BME280;52283;49.292;10.572;2022-07-22T10:17:35;96741.00;;;28.06;41.08
65614;BME280;52283;49.292;10.572;2022-07-22T10:20:04;96747.50;;;28.07;41.88
65614;BME280;52283;49.292;10.572;2022-07-22T10:22:55;96745.03;;;28.34;40.85
65614;BME280;52283;49.292;10.572;2022-07-22T10:25:23;96739.19;;;28.89;40.46
65614;BME280;52283;49.292;10.572;2022-07-22T10:27:53;96736.72;;;29.30;39.75
65614;BME280;52283;49.292;10.572;2022-07-22T10:30:20;96735.13;;;28.70;39.34
65614;BME280;52283;49.292;10.572;2022-07-22T10:33:02;96735.13;;;29.38;39.19
65614;BME280;52283;49.292;10.572;2022-07-22T10:35:31;96727.25;;;28.59;39.75
65614;BME280;52283;49.292;10.572;2022-07-22T10:38:02;96723.19;;;28.41;39.45
65614;BME280;52283;49.292;10.572;2022-07-22T10:40:30;96715.75;;;28.59;39.80
65614;BME280;52283;49.292;10.572;2022-07-22T10:43:10;96711.44;;;28.37;39.92
65614;BME280;52283;49.292;10.572;2022-07-22T10:45:40;96719.66;;;28.75;40.05
65614;BME280;52283;49.292;10.572;2022-07-22T10:48:10;96719.34;;;29.63;38.10
65614;BME280;52283;49.292;10.572;2022-07-22T10:50:51;96709.56;;;29.68;38.18
65614;BME280;52283;49.292;10.572;2022-07-22T10:53:23;96709.78;;;29.72;34.65
65614;BME280;52283;49.292;10.572;2022-07-22T10:56:12;96696.72;;;30.82;35.45
65614;BME280;52283;49.292;10.572;2022-07-22T10:58:58;96702.31;;;29.32;36.18
65614;BME280;52283;49.292;10.572;2022-07-22T11:01:27;96704.22;;;30.37;35.08
65614;BME280;52283;49.292;10.572;2022-07-22T11:03:55;96699.81;;;29.98;35.25
65614;BME280;52283;49.292;10.572;2022-07-22T11:06:33;96705.69;;;28.93;36.88
65614;BME280;52283;49.292;10.572;2022-07-22T11:09:03;96700.53;;;28.80;37.39
65614;BME280;52283;49.292;10.572;2022-07-22T11:11:38;96695.69;;;29.64;36.02
65614;BME280;52283;49.292;10.572;2022-07-22T11:14:14;96684.81;;;30.62;34.87
65614;BME280;52283;49.292;10.572;2022-07-22T11:16:42;96681.81;;;29.02;36.38
65614;BME280;52283;49.292;10.572;2022-07-22T11:19:09;96692.84;;;28.16;38.10
65614;BME280;52283;49.292;10.572;2022-07-22T11:21:35;96691.69;;;28.88;37.28
65614;BME280;52283;49.292;10.572;2022-07-22T11:24:06;96680.81;;;29.93;35.25
65614;BME280;52283;49.292;10.572;2022-07-22T11:26:36;96681.28;;;28.82;36.45
65614;BME280;52283;49.292;10.572;2022-07-22T11:29:03;96675.06;;;29.09;36.73
65614;BME280;52283;49.292;10.572;2022-07-22T11:31:30;96671.91;;;30.52;34.62
65614;BME280;52283;49.292;10.572;2022-07-22T11:34:05;96669.47;;;29.72;34.73
65614;BME280;52283;49.292;10.572;2022-07-22T11:36:33;96670.44;;;29.04;34.96
65614;BME280;52283;49.292;10.572;2022-07-22T11:39:00;96661.50;;;29.35;35.28
65614;BME280;52283;49.292;10.572;2022-07-22T11:41:30;96661.16;;;29.29;35.34
65614;BME280;52283;49.292;10.572;2022-07-22T11:43:57;96666.41;;;29.93;35.00
65614;BME280;52283;49.292;10.572;2022-07-22T11:46:24;96658.38;;;30.03;34.00
65614;BME280;52283;49.292;10.572;2022-07-22T11:48:52;96657.41;;;28.92;36.11
65614;BME280;52283;49.292;10.572;2022-07-22T11:51:19;96651.75;;;29.29;35.43
65614;BME280;52283;49.292;10.572;2022-07-22T11:53:46;96651.00;;;29.28;35.46
65614;BME280;52283;49.292;10.572;2022-07-22T11:56:13;96644.53;;;29.16;35.25
65614;BME280;52283;49.292;10.572;2022-07-22T11:58:42;96657.56;;;29.17;36.12
65614;BME280;52283;49.292;10.572;2022-07-22T12:01:11;96644.78;;;30.18;34.71
65614;BME280;52283;49.292;10.572;2022-07-22T12:03:40;96634.94;;;30.09;33.00
65614;BME280;52283;49.292;10.572;2022-07-22T12:06:09;96640.44;;;31.09;32.84
65614;BME280;52283;49.292;10.572;2022-07-22T12:08:40;96635.97;;;30.27;32.74
65614;BME280;52283;49.292;10.572;2022-07-22T12:11:08;96623.47;;;30.23;32.80
65614;BME280;52283;49.292;10.572;2022-07-22T12:13:35;96626.22;;;29.47;33.29
65614;BME280;52283;49.292;10.572;2022-07-22T12:16:19;96625.34;;;29.44;33.78
65614;BME280;52283;49.292;10.572;2022-07-22T12:18:54;96611.41;;;30.01;32.39
65614;BME280;52283;49.292;10.572;2022-07-22T12:21:22;96606.31;;;30.91;31.18
65614;BME280;52283;49.292;10.572;2022-07-22T12:23:51;96606.09;;;30.34;32.80
65614;BME280;52283;49.292;10.572;2022-07-22T12:26:17;96609.50;;;30.70;32.25
65614;BME280;52283;49.292;10.572;2022-07-22T12:28:44;96603.72;;;29.80;33.05
65614;BME280;52283;49.292;10.572;2022-07-22T12:31:11;96600.03;;;31.09;32.12
65614;BME280;52283;49.292;10.572;2022-07-22T12:33:46;96603.22;;;31.42;31.44
65614;BME280;52283;49.292;10.572;2022-07-22T12:36:13;96597.78;;;29.64;32.90
65614;BME280;52283;49.292;10.572;2022-07-22T12:38:39;96587.06;;;31.51;30.41
65614;BME280;52283;49.292;10.572;2022-07-22T12:41:23;96592.81;;;32.08;29.85
65614;BME280;52283;49.292;10.572;2022-07-22T12:43:50;96581.25;;;32.24;29.65
65614;BME280;52283;49.292;10.572;2022-07-22T12:46:17;96583.38;;;32.07;30.36
65614;BME280;52283;49.292;10.572;2022-07-22T12:48:50;96592.19;;;30.31;32.40
65614;BME280;52283;49.292;10.572;2022-07-22T12:51:17;96586.28;;;30.54;31.36